This is the latest recevied weather packets stored in our database for station/object K1LVA. If no packets are shown the sender has not sent any weather packets the latest 10 day(s).
| Time | Temp. | Humidity | Pressure | Rain* | Wind** | Luminosity | Snow |
|---|---|---|---|---|---|---|---|
| 1777764785 | 13.33° C | 87% | 1012.6 hPa | 0 mm | - | 28 W/m² | - |
| 1777764482 | 13.33° C | 87% | 1012.8 hPa | 0 mm | - | 32 W/m² | - |
| 1777764178 | 13.33° C | 86% | 1012.4 hPa | 0 mm | - | 34 W/m² | - |
| 1777763875 | 13.89° C | 86% | 1012.4 hPa | 0 mm | - | 37 W/m² | - |
| 1777763573 | 13.89° C | 84% | 1012.4 hPa | 0 mm | - | 40 W/m² | - |
| 1777763271 | 14.44° C | 85% | 1012.2 hPa | 0 mm | - | 42 W/m² | - |
| 1777762969 | 15° C | 82% | 1012.2 hPa | 0 mm | - | 46 W/m² | - |
| 1777762664 | 15° C | 82% | 1012.4 hPa | 0 mm | - | 50 W/m² | - |
| 1777762356 | 15.56° C | 80% | 1012.3 hPa | 0 mm | - | 60 W/m² | - |
| 1777762052 | 15° C | 81% | 1012.8 hPa | 0 mm | - | 66 W/m² | - |
| 1777761749 | 15° C | 83% | 1012.7 hPa | 0 mm | - | 72 W/m² | - |
| 1777761447 | 15.56° C | 81% | 1012.6 hPa | 0 mm | - | 81 W/m² | - |
| 1777761144 | 15.56° C | 81% | 1012.6 hPa | 0 mm | - | 97 W/m² | - |
| 1777760842 | 15° C | 84% | 1012.6 hPa | 0 mm | - | 121 W/m² | - |
| 1777760538 | 15° C | 87% | 1012.4 hPa | 0 mm | - | 198 W/m² | - |
| 1777760234 | 13.89° C | 91% | 1012.4 hPa | 0 mm | - | 207 W/m² | - |
| 1777759931 | 13.89° C | 91% | 1012.4 hPa | 0 mm | - | 135 W/m² | - |
| 1777759627 | 13.89° C | 91% | 1012.3 hPa | 0 mm | - | 130 W/m² | - |
| 1777759324 | 13.89° C | 92% | 1012.3 hPa | 0 mm | - | 129 W/m² | - |
| 1777759021 | 13.33° C | 93% | 1012.3 hPa | 0 mm | - | 120 W/m² | - |
| 1777758718 | 13.33° C | 94% | 1012.2 hPa | 0 mm | - | 118 W/m² | - |
| 1777758415 | 13.33° C | 93% | 1012.3 hPa | 0 mm | - | 110 W/m² | - |
| 1777758112 | 13.33° C | 93% | 1012.2 hPa | 0 mm | - | 101 W/m² | - |
| 1777757809 | 12.78° C | 94% | 1011.9 hPa | 0 mm | - | 75 W/m² | - |
| 1777757506 | 12.78° C | 94% | 1012 hPa | 0 mm | - | 82 W/m² | - |
* Rain latest hour (hover to see other rain measurements)
** Current wind speed in m/s (hover to see current wind gust speed)